createdAt,value
2018-02-12T00:00:20.520Z,980.27
2018-02-12T00:01:27.246Z,980.26
2018-02-12T00:02:40.020Z,980.28
2018-02-12T00:03:40.718Z,980.29
2018-02-12T00:04:47.514Z,980.30
2018-02-12T00:05:54.320Z,980.26
2018-02-12T00:07:01.053Z,980.33
2018-02-12T00:08:07.756Z,980.21
2018-02-12T00:09:14.531Z,980.30
2018-02-12T00:10:21.265Z,980.31
2018-02-12T00:11:27.955Z,980.31
2018-02-12T00:12:34.660Z,980.45
2018-02-12T00:13:41.344Z,980.47
2018-02-12T00:14:48.163Z,980.39
2018-02-12T00:15:54.857Z,980.38
2018-02-12T00:17:01.647Z,980.47
2018-02-12T00:18:08.395Z,980.46
2018-02-12T00:19:15.064Z,980.48
2018-02-12T00:20:21.806Z,980.53
2018-02-12T00:21:28.500Z,980.53
2018-02-12T00:22:35.206Z,980.58
2018-02-12T00:23:42.320Z,980.51
2018-02-12T00:24:49.027Z,980.50
2018-02-12T00:25:55.745Z,980.53
2018-02-12T00:27:02.435Z,980.59
2018-02-12T00:28:09.114Z,980.64
2018-02-12T00:29:15.878Z,980.63
2018-02-12T00:30:22.544Z,980.63
2018-02-12T00:31:29.252Z,980.70
2018-02-12T00:32:35.984Z,980.63
2018-02-12T00:33:42.680Z,980.69
2018-02-12T00:34:49.372Z,980.66
2018-02-12T00:35:56.152Z,980.70
2018-02-12T00:37:02.860Z,980.69
2018-02-12T00:38:09.563Z,980.72
2018-02-12T00:39:16.267Z,980.70
2018-02-12T00:40:23.052Z,980.66
2018-02-12T00:41:29.822Z,980.68
2018-02-12T00:42:36.512Z,980.69
2018-02-12T00:43:43.218Z,980.68
2018-02-12T00:44:49.914Z,980.75
2018-02-12T00:45:56.619Z,980.66
2018-02-12T00:47:03.316Z,980.75
2018-02-12T00:48:10.097Z,980.75
2018-02-12T00:49:16.771Z,980.71
2018-02-12T00:50:23.485Z,980.73
2018-02-12T00:51:30.194Z,980.75
2018-02-12T00:52:36.910Z,980.79
2018-02-12T00:53:43.599Z,980.67
2018-02-12T00:54:50.391Z,980.69
2018-02-12T00:55:57.163Z,980.75
2018-02-12T00:57:03.893Z,980.83
2018-02-12T00:58:10.580Z,980.82
2018-02-12T00:59:17.295Z,980.77
2018-02-12T01:00:24.063Z,980.84
2018-02-12T01:01:31.217Z,980.83
2018-02-12T01:02:38.411Z,980.76
2018-02-12T01:03:45.120Z,980.81
2018-02-12T01:04:51.831Z,980.82
2018-02-12T01:05:58.511Z,980.81
2018-02-12T01:07:05.209Z,980.85
2018-02-12T01:08:12.096Z,980.79
2018-02-12T01:09:18.762Z,980.83
2018-02-12T01:10:25.453Z,980.89
2018-02-12T01:11:32.143Z,980.86
2018-02-12T01:12:38.882Z,980.86
2018-02-12T01:13:45.663Z,980.90
2018-02-12T01:14:52.455Z,980.93
2018-02-12T01:15:59.174Z,980.96
2018-02-12T01:17:05.863Z,980.99
2018-02-12T01:18:12.574Z,981.03
2018-02-12T01:19:19.344Z,980.98
2018-02-12T01:20:26.032Z,980.98
2018-02-12T01:21:32.730Z,981.02
2018-02-12T01:22:39.419Z,981.01
2018-02-12T01:23:46.147Z,981.08
2018-02-12T01:24:52.828Z,981.00
2018-02-12T01:25:59.584Z,981.08
2018-02-12T01:27:06.323Z,981.03
2018-02-12T01:28:13.368Z,981.03
2018-02-12T01:29:20.099Z,981.13
2018-02-12T01:30:26.781Z,981.07
2018-02-12T01:31:33.511Z,981.10
2018-02-12T01:32:40.232Z,981.10
2018-02-12T01:33:46.923Z,981.02
2018-02-12T01:34:53.631Z,981.07
2018-02-12T01:36:00.313Z,981.13
2018-02-12T01:37:07.077Z,981.10
2018-02-12T01:38:13.751Z,981.09
2018-02-12T01:39:20.936Z,981.16
2018-02-12T01:40:27.603Z,981.21
2018-02-12T01:41:34.310Z,981.17
2018-02-12T01:42:41.009Z,981.19
2018-02-12T01:43:47.720Z,981.18
2018-02-12T01:44:54.397Z,981.17
2018-02-12T01:46:01.083Z,981.18
2018-02-12T01:47:07.848Z,981.31
2018-02-12T01:48:14.616Z,981.18
2018-02-12T01:49:21.352Z,981.20
2018-02-12T01:50:28.050Z,981.21
2018-02-12T01:51:34.882Z,981.23
2018-02-12T01:52:41.551Z,981.23
2018-02-12T01:53:48.257Z,981.28
2018-02-12T01:54:54.978Z,981.22
2018-02-12T01:56:01.663Z,981.26
2018-02-12T01:57:08.359Z,981.18
2018-02-12T01:58:15.047Z,981.28
2018-02-12T01:59:21.888Z,981.31
2018-02-12T02:00:28.583Z,981.28
2018-02-12T02:01:35.290Z,981.32
2018-02-12T02:02:41.985Z,981.32
2018-02-12T02:03:48.683Z,981.32
2018-02-12T02:04:55.408Z,981.28
2018-02-12T02:06:02.180Z,981.38
2018-02-12T02:07:08.877Z,981.34
2018-02-12T02:08:15.575Z,981.28
2018-02-12T02:09:22.263Z,981.30
2018-02-12T02:10:29.000Z,981.37
2018-02-12T02:11:35.684Z,981.37
2018-02-12T02:12:42.368Z,981.41
2018-02-12T02:13:49.156Z,981.42
2018-02-12T02:14:55.844Z,981.42
2018-02-12T02:16:02.667Z,981.41
2018-02-12T02:17:09.348Z,981.47
2018-02-12T02:18:16.084Z,981.44
2018-02-12T02:19:22.831Z,981.51
2018-02-12T02:20:29.529Z,981.44
2018-02-12T02:21:36.257Z,981.40
2018-02-12T02:22:42.964Z,981.42
2018-02-12T02:23:49.691Z,981.40
2018-02-12T02:24:56.363Z,981.50
2018-02-12T02:26:03.072Z,981.44
2018-02-12T02:27:09.925Z,981.46
2018-02-12T02:28:16.598Z,981.41
2018-02-12T02:29:23.302Z,981.31
2018-02-12T02:30:30.012Z,981.50
2018-02-12T02:31:36.732Z,981.45
2018-02-12T02:32:43.504Z,981.47
2018-02-12T02:33:50.208Z,981.41
2018-02-12T02:34:56.908Z,981.42
2018-02-12T02:36:03.636Z,981.42
2018-02-12T02:37:10.364Z,981.39
2018-02-12T02:38:17.064Z,981.42
2018-02-12T02:39:23.811Z,981.43
2018-02-12T02:40:30.500Z,981.48
2018-02-12T02:41:37.216Z,981.42
2018-02-12T02:42:43.920Z,981.47
2018-02-12T02:43:50.592Z,981.47
2018-02-12T02:44:57.308Z,981.43
2018-02-12T02:46:04.009Z,981.49
2018-02-12T02:47:10.771Z,981.46
2018-02-12T02:48:17.468Z,981.50
2018-02-12T02:49:24.152Z,981.44
2018-02-12T02:50:30.905Z,981.46
2018-02-12T02:51:37.619Z,981.47
2018-02-12T02:52:44.296Z,981.54
2018-02-12T02:53:51.464Z,981.56
2018-02-12T02:54:58.292Z,981.64
2018-02-12T02:56:05.011Z,981.52
2018-02-12T02:57:11.740Z,981.65
2018-02-12T02:58:18.424Z,981.61
2018-02-12T02:59:25.132Z,981.60
2018-02-12T03:00:31.808Z,981.53
2018-02-12T03:01:38.572Z,981.60
2018-02-12T03:02:45.308Z,981.64
2018-02-12T03:03:51.992Z,981.60
2018-02-12T03:04:58.704Z,981.60
2018-02-12T03:06:05.427Z,981.64
2018-02-12T03:07:12.162Z,981.62
2018-02-12T03:08:18.848Z,981.61
2018-02-12T03:09:25.627Z,981.69
2018-02-12T03:10:32.299Z,981.71
2018-02-12T03:11:38.979Z,981.69
2018-02-12T03:12:45.713Z,981.69
2018-02-12T03:13:52.423Z,981.68
2018-02-12T03:14:59.128Z,981.73
2018-02-12T03:16:05.798Z,981.71
2018-02-12T03:17:12.505Z,981.74
2018-02-12T03:18:19.280Z,981.76
2018-02-12T03:19:26.044Z,981.77
2018-02-12T03:20:32.743Z,981.80
2018-02-12T03:21:39.421Z,981.76
2018-02-12T03:22:46.121Z,981.86
2018-02-12T03:23:52.816Z,981.78
2018-02-12T03:24:59.599Z,981.81
2018-02-12T03:26:06.755Z,981.84
2018-02-12T03:27:13.420Z,981.79
2018-02-12T03:28:20.153Z,981.88
2018-02-12T03:29:26.844Z,981.89
2018-02-12T03:30:33.527Z,981.83
2018-02-12T03:31:40.219Z,981.77
2018-02-12T03:32:46.903Z,981.84
2018-02-12T03:33:53.719Z,981.76
2018-02-12T03:35:00.396Z,981.85
2018-02-12T03:36:07.129Z,981.82
2018-02-12T03:37:13.839Z,981.84
2018-02-12T03:38:20.507Z,981.79
2018-02-12T03:39:27.219Z,981.86
2018-02-12T03:40:33.891Z,981.84
2018-02-12T03:41:40.648Z,981.87
2018-02-12T03:42:47.332Z,981.90
2018-02-12T03:43:54.032Z,981.89
2018-02-12T03:45:00.744Z,981.93
2018-02-12T03:46:07.519Z,981.85
2018-02-12T03:47:14.336Z,981.87
2018-02-12T03:48:21.034Z,981.92
2018-02-12T03:49:27.759Z,981.91
2018-02-12T03:50:34.484Z,981.90
2018-02-12T03:51:41.169Z,981.88
2018-02-12T03:52:47.937Z,981.94
2018-02-12T03:53:54.670Z,981.94
2018-02-12T03:55:01.359Z,982.02
2018-02-12T03:56:08.031Z,982.03
2018-02-12T03:57:14.728Z,982.08
2018-02-12T03:58:21.452Z,982.05
2018-02-12T03:59:28.185Z,982.02
2018-02-12T04:00:34.851Z,982.13
2018-02-12T04:01:41.599Z,982.16
2018-02-12T04:02:48.769Z,982.06
2018-02-12T04:03:55.432Z,982.05
2018-02-12T04:05:02.120Z,982.14
2018-02-12T04:06:08.911Z,982.09
2018-02-12T04:07:15.616Z,982.15
2018-02-12T04:08:22.307Z,982.07
2018-02-12T04:09:29.345Z,982.13
2018-02-12T04:10:36.055Z,982.10
2018-02-12T04:11:42.883Z,982.09
2018-02-12T04:12:49.555Z,982.07
2018-02-12T04:13:56.420Z,982.13
2018-02-12T04:15:03.080Z,982.17
2018-02-12T04:16:09.799Z,982.17
2018-02-12T04:17:16.519Z,982.14
2018-02-12T04:18:23.236Z,982.17
2018-02-12T04:19:30.005Z,982.18
2018-02-12T04:20:36.693Z,982.17
2018-02-12T04:21:43.407Z,982.12
2018-02-12T04:22:50.087Z,982.11
2018-02-12T04:23:56.843Z,982.17
2018-02-12T04:25:03.552Z,982.18
2018-02-12T04:26:10.259Z,982.13
2018-02-12T04:27:17.024Z,982.10
2018-02-12T04:28:23.748Z,982.20
2018-02-12T04:29:30.556Z,982.20
2018-02-12T04:30:37.243Z,982.20
2018-02-12T04:31:43.959Z,982.24
2018-02-12T04:32:50.668Z,982.25
2018-02-12T04:33:57.362Z,982.25
2018-02-12T04:35:04.047Z,982.24
2018-02-12T04:36:10.773Z,982.20
2018-02-12T04:37:17.537Z,982.20
2018-02-12T04:38:24.226Z,982.18
2018-02-12T04:39:30.939Z,982.27
2018-02-12T04:40:37.651Z,982.20
2018-02-12T04:41:44.333Z,982.24
2018-02-12T04:42:51.039Z,982.25
2018-02-12T04:43:57.711Z,982.27
2018-02-12T04:45:04.499Z,982.31
2018-02-12T04:46:11.675Z,982.30
2018-02-12T04:47:18.411Z,982.26
2018-02-12T04:48:25.123Z,982.33
2018-02-12T04:49:32.968Z,982.35
2018-02-12T04:50:38.724Z,982.35
2018-02-12T04:51:45.396Z,982.34
2018-02-12T04:52:52.584Z,982.40
2018-02-12T04:53:59.291Z,982.32
2018-02-12T04:55:05.984Z,982.40
2018-02-12T04:56:12.691Z,982.39
2018-02-12T04:57:19.386Z,982.40
2018-02-12T04:58:26.140Z,982.38
2018-02-12T04:59:32.875Z,982.42
2018-02-12T05:00:39.559Z,982.48
2018-02-12T05:01:46.244Z,982.49
2018-02-12T05:02:52.938Z,982.60
2018-02-12T05:03:59.643Z,982.57
2018-02-12T05:05:06.336Z,982.57
2018-02-12T05:06:13.051Z,982.51
2018-02-12T05:07:19.748Z,982.62
2018-02-12T05:08:26.543Z,982.63
2018-02-12T05:09:33.206Z,982.61
2018-02-12T05:10:39.974Z,982.65
2018-02-12T05:11:46.683Z,982.73
2018-02-12T05:12:53.382Z,982.66
2018-02-12T05:14:00.074Z,982.69
2018-02-12T05:15:06.755Z,982.67
2018-02-12T05:16:13.516Z,982.74
2018-02-12T05:17:20.183Z,982.79
2018-02-12T05:18:26.886Z,982.79
2018-02-12T05:19:33.615Z,982.87
2018-02-12T05:20:40.383Z,982.86
2018-02-12T05:21:47.175Z,982.76
2018-02-12T05:22:53.861Z,982.78
2018-02-12T05:24:00.572Z,982.89
2018-02-12T05:25:07.314Z,982.88
2018-02-12T05:26:14.007Z,982.83
2018-02-12T05:27:20.712Z,982.83
2018-02-12T05:28:27.510Z,982.86
2018-02-12T05:29:34.217Z,982.83
2018-02-12T05:30:40.906Z,982.80
2018-02-12T05:31:47.600Z,982.81
2018-02-12T05:32:54.294Z,982.85
2018-02-12T05:34:00.990Z,982.85
2018-02-12T05:35:07.738Z,982.80
2018-02-12T05:36:14.494Z,982.85
2018-02-12T05:37:21.180Z,982.89
2018-02-12T05:38:27.966Z,982.96
2018-02-12T05:39:34.670Z,982.97
2018-02-12T05:40:41.395Z,982.88
2018-02-12T05:41:48.175Z,982.98
2018-02-12T05:42:54.879Z,982.98
2018-02-12T05:44:01.629Z,982.97
2018-02-12T05:45:08.371Z,982.93
2018-02-12T05:46:15.080Z,982.99
2018-02-12T05:47:21.760Z,983.08
2018-02-12T05:48:28.580Z,983.00
2018-02-12T05:49:35.288Z,983.02
2018-02-12T05:50:42.007Z,983.04
2018-02-12T05:51:48.708Z,983.13
2018-02-12T05:52:55.403Z,983.03
2018-02-12T05:54:02.110Z,983.09
2018-02-12T05:55:08.912Z,983.11
2018-02-12T05:56:15.842Z,983.17
2018-02-12T05:57:22.714Z,983.12
2018-02-12T05:58:29.387Z,983.16
2018-02-12T05:59:36.123Z,983.20
2018-02-12T06:00:42.937Z,983.25
2018-02-12T06:01:49.743Z,983.16
2018-02-12T06:02:56.432Z,983.22
2018-02-12T06:04:03.165Z,983.22
2018-02-12T06:05:10.168Z,983.29
2018-02-12T06:06:16.599Z,983.23
2018-02-12T06:07:23.435Z,983.30
2018-02-12T06:08:30.131Z,983.22
2018-02-12T06:09:36.829Z,983.23
2018-02-12T06:10:43.537Z,983.32
2018-02-12T06:11:50.260Z,983.28
2018-02-12T06:12:56.939Z,983.26
2018-02-12T06:14:03.801Z,983.32
2018-02-12T06:15:10.495Z,983.37
2018-02-12T06:16:17.287Z,983.34
2018-02-12T06:17:24.015Z,983.43
2018-02-12T06:18:30.711Z,983.46
2018-02-12T06:19:37.788Z,983.44
2018-02-12T06:20:44.475Z,983.49
2018-02-12T06:21:51.296Z,983.50
2018-02-12T06:22:58.003Z,983.53
2018-02-12T06:24:04.756Z,983.56
2018-02-12T06:25:11.444Z,983.49
2018-02-12T06:26:18.146Z,983.59
2018-02-12T06:27:25.075Z,983.55
2018-02-12T06:28:31.796Z,983.57
2018-02-12T06:29:38.583Z,983.56
2018-02-12T06:30:45.363Z,983.54
2018-02-12T06:31:52.037Z,983.52
2018-02-12T06:32:58.766Z,983.62
2018-02-12T06:34:05.464Z,983.59
2018-02-12T06:35:12.201Z,983.68
2018-02-12T06:36:18.907Z,983.70
2018-02-12T06:37:25.733Z,983.71
2018-02-12T06:38:32.454Z,983.78
2018-02-12T06:39:39.152Z,983.73
2018-02-12T06:40:45.871Z,983.80
2018-02-12T06:41:52.567Z,983.87
2018-02-12T06:42:59.308Z,983.90
2018-02-12T06:44:06.155Z,983.85
2018-02-12T06:45:12.864Z,983.90
2018-02-12T06:46:19.591Z,983.88
2018-02-12T06:47:26.295Z,983.91
2018-02-12T06:48:33.027Z,983.90
2018-02-12T06:49:39.803Z,983.88
2018-02-12T06:50:46.487Z,983.94
2018-02-12T06:51:53.194Z,983.95
2018-02-12T06:52:59.913Z,983.99
2018-02-12T06:54:06.657Z,983.96
2018-02-12T06:55:13.354Z,984.01
2018-02-12T06:56:20.115Z,983.98
2018-02-12T06:57:26.795Z,984.08
2018-02-12T06:58:33.525Z,984.05
2018-02-12T06:59:40.343Z,984.13
2018-02-12T07:00:47.072Z,984.12
2018-02-12T07:01:53.828Z,984.09
2018-02-12T07:03:00.572Z,984.22
2018-02-12T07:04:07.275Z,984.14
2018-02-12T07:05:14.012Z,984.25
2018-02-12T07:06:20.724Z,984.29
2018-02-12T07:07:27.525Z,984.21
2018-02-12T07:08:34.214Z,984.35
2018-02-12T07:09:40.925Z,984.28
2018-02-12T07:10:47.641Z,984.26
2018-02-12T07:11:54.344Z,984.33
2018-02-12T07:13:01.044Z,984.36
2018-02-12T07:14:07.715Z,984.40
2018-02-12T07:15:14.550Z,984.41
2018-02-12T07:16:21.239Z,984.48
2018-02-12T07:17:27.943Z,984.48
2018-02-12T07:18:34.664Z,984.45
2018-02-12T07:19:41.429Z,984.46
2018-02-12T07:20:48.241Z,984.49
2018-02-12T07:21:54.971Z,984.46
2018-02-12T07:23:01.664Z,984.56
2018-02-12T07:24:08.427Z,984.57
2018-02-12T07:25:15.150Z,984.51
2018-02-12T07:26:21.915Z,984.49
2018-02-12T07:27:28.592Z,984.55
2018-02-12T07:28:35.275Z,984.58
2018-02-12T07:29:42.047Z,984.56
2018-02-12T07:30:48.759Z,984.56
2018-02-12T07:31:55.844Z,984.59
2018-02-12T07:33:02.531Z,984.60
2018-02-12T07:34:09.218Z,984.57
2018-02-12T07:35:15.933Z,984.60
2018-02-12T07:36:22.701Z,984.61
2018-02-12T07:37:29.399Z,984.56
2018-02-12T07:38:36.103Z,984.63
2018-02-12T07:39:42.810Z,984.59
2018-02-12T07:40:49.537Z,984.62
2018-02-12T07:41:56.324Z,984.61
2018-02-12T07:43:03.039Z,984.61
2018-02-12T07:44:09.745Z,984.65
2018-02-12T07:45:16.443Z,984.70
2018-02-12T07:46:23.264Z,984.66
2018-02-12T07:47:29.962Z,984.78
2018-02-12T07:48:36.731Z,984.73
2018-02-12T07:49:43.444Z,984.76
2018-02-12T07:50:50.160Z,984.79
2018-02-12T07:51:56.860Z,984.86
2018-02-12T07:53:03.900Z,984.83
2018-02-12T07:54:10.596Z,984.93
2018-02-12T07:55:17.312Z,984.89
2018-02-12T07:56:24.031Z,984.97
2018-02-12T07:57:30.838Z,984.98
2018-02-12T07:58:37.552Z,984.98
2018-02-12T07:59:44.331Z,985.07
2018-02-12T08:00:51.156Z,985.02
2018-02-12T08:01:57.919Z,985.01
2018-02-12T08:03:04.746Z,985.06
2018-02-12T08:04:11.511Z,985.15
2018-02-12T08:05:18.196Z,985.17
2018-02-12T08:06:24.959Z,985.15
2018-02-12T08:07:31.711Z,985.11
2018-02-12T08:08:38.424Z,985.12
2018-02-12T08:09:45.159Z,985.16
2018-02-12T08:10:51.948Z,985.23
2018-02-12T08:11:58.662Z,985.20
2018-02-12T08:13:05.353Z,985.22
2018-02-12T08:14:12.059Z,985.18
2018-02-12T08:15:18.779Z,985.26
2018-02-12T08:16:25.621Z,985.21
2018-02-12T08:17:32.382Z,985.23
2018-02-12T08:18:39.115Z,985.34
2018-02-12T08:19:45.827Z,985.32
2018-02-12T08:20:52.541Z,985.40
2018-02-12T08:21:59.266Z,985.42
2018-02-12T08:23:06.084Z,985.38
2018-02-12T08:24:12.815Z,985.41
2018-02-12T08:25:19.650Z,985.40
2018-02-12T08:26:26.476Z,985.41
2018-02-12T08:27:33.277Z,985.39
2018-02-12T08:28:40.041Z,985.41
2018-02-12T08:29:46.914Z,985.43
2018-02-12T08:30:53.701Z,985.46
2018-02-12T08:32:00.945Z,985.46
2018-02-12T08:33:07.741Z,985.51
2018-02-12T08:34:14.504Z,985.52
2018-02-12T08:35:21.309Z,985.49
2018-02-12T08:36:32.681Z,985.48
2018-02-12T08:37:35.016Z,985.48
2018-02-12T08:38:41.845Z,985.54
2018-02-12T08:39:48.683Z,985.46
2018-02-12T08:40:55.468Z,985.53
2018-02-12T08:42:02.278Z,985.54
2018-02-12T08:43:09.194Z,985.45
2018-02-12T08:44:15.951Z,985.49
2018-02-12T08:45:22.849Z,985.61
2018-02-12T08:46:29.625Z,985.62
2018-02-12T08:47:36.425Z,985.60
2018-02-12T08:48:43.266Z,985.64
2018-02-12T08:49:50.121Z,985.67
2018-02-12T08:50:57.098Z,985.68
2018-02-12T08:52:03.920Z,985.77
2018-02-12T08:53:10.772Z,985.75
2018-02-12T08:54:17.568Z,985.75
2018-02-12T08:55:24.341Z,985.75
2018-02-12T08:56:31.332Z,985.75
2018-02-12T08:57:38.304Z,985.73
2018-02-12T08:58:45.104Z,985.75
2018-02-12T08:59:51.905Z,985.79
2018-02-12T09:00:58.696Z,985.79
2018-02-12T09:02:05.485Z,985.79
2018-02-12T09:03:12.272Z,985.82
2018-02-12T09:04:19.116Z,985.87
2018-02-12T09:05:25.884Z,985.84
2018-02-12T09:06:32.670Z,985.91
2018-02-12T09:07:39.505Z,985.94
2018-02-12T09:08:46.306Z,985.88
2018-02-12T09:09:53.137Z,985.83
2018-02-12T09:11:00.007Z,985.82
2018-02-12T09:12:06.833Z,985.81
2018-02-12T09:13:13.772Z,985.85
2018-02-12T09:14:20.544Z,985.85
2018-02-12T09:15:27.438Z,985.88
2018-02-12T09:16:34.208Z,986.00
2018-02-12T09:17:41.036Z,985.92
2018-02-12T09:18:47.851Z,985.94
2018-02-12T09:19:54.668Z,985.95
2018-02-12T09:21:01.460Z,985.99
2018-02-12T09:22:08.265Z,986.11
2018-02-12T09:23:15.072Z,986.00
2018-02-12T09:24:21.865Z,986.06
2018-02-12T09:25:28.692Z,986.07
2018-02-12T09:26:35.497Z,986.07
2018-02-12T09:27:42.263Z,986.16
2018-02-12T09:28:49.068Z,986.13
2018-02-12T09:29:55.800Z,986.08
2018-02-12T09:31:02.561Z,986.14
2018-02-12T09:32:09.335Z,986.16
2018-02-12T09:33:16.179Z,986.11
2018-02-12T09:34:22.960Z,986.23
2018-02-12T09:35:29.712Z,986.25
2018-02-12T09:36:36.564Z,986.28
2018-02-12T09:37:43.306Z,986.26
2018-02-12T09:38:50.015Z,986.23
2018-02-12T09:39:56.726Z,986.27
2018-02-12T09:41:03.437Z,986.27
2018-02-12T09:42:10.231Z,986.31
2018-02-12T09:43:16.962Z,986.34
2018-02-12T09:44:23.756Z,986.35
2018-02-12T09:45:30.628Z,986.40
2018-02-12T09:46:37.422Z,986.36
2018-02-12T09:47:44.185Z,986.35
2018-02-12T09:48:51.027Z,986.38
2018-02-12T09:49:57.848Z,986.36
2018-02-12T09:51:04.580Z,986.44
2018-02-12T09:52:11.324Z,986.45
2018-02-12T09:53:18.081Z,986.50
2018-02-12T09:54:24.779Z,986.53
2018-02-12T09:55:31.517Z,986.48
2018-02-12T09:56:38.283Z,986.49
2018-02-12T09:57:45.163Z,986.56
2018-02-12T09:58:51.907Z,986.52
2018-02-12T09:59:58.702Z,986.56
2018-02-12T10:01:05.537Z,986.61
2018-02-12T10:02:12.267Z,986.62
2018-02-12T10:03:19.042Z,986.49
2018-02-12T10:04:25.752Z,986.65
2018-02-12T10:05:32.580Z,986.62
2018-02-12T10:06:39.303Z,986.67
2018-02-12T10:07:46.071Z,986.61
2018-02-12T10:08:53.129Z,986.67
2018-02-12T10:09:59.800Z,986.73
2018-02-12T10:11:06.579Z,986.60
2018-02-12T10:12:13.371Z,986.81
2018-02-12T10:13:20.102Z,986.75
2018-02-12T10:14:26.820Z,986.80
2018-02-12T10:15:33.567Z,986.79
2018-02-12T10:16:40.428Z,986.89
2018-02-12T10:17:47.169Z,986.92
2018-02-12T10:18:54.048Z,986.82
2018-02-12T10:20:00.829Z,986.92
2018-02-12T10:21:07.548Z,986.91
2018-02-12T10:22:14.304Z,987.00
2018-02-12T10:23:21.047Z,986.94
2018-02-12T10:24:27.979Z,987.09
2018-02-12T10:25:34.774Z,987.02
2018-02-12T10:26:41.515Z,987.03
2018-02-12T10:27:48.287Z,986.99
2018-02-12T10:28:55.027Z,987.06
2018-02-12T10:30:01.924Z,987.08
2018-02-12T10:31:08.656Z,987.07
2018-02-12T10:32:15.469Z,987.07
2018-02-12T10:33:22.171Z,987.13
2018-02-12T10:34:29.021Z,987.22
2018-02-12T10:35:35.797Z,987.13
2018-02-12T10:36:42.574Z,987.20
2018-02-12T10:37:49.403Z,987.17
2018-02-12T10:38:56.163Z,987.17
2018-02-12T10:40:02.930Z,987.21
2018-02-12T10:41:09.811Z,987.25
2018-02-12T10:42:16.627Z,987.24
2018-02-12T10:43:23.365Z,987.30
2018-02-12T10:44:30.196Z,987.20
2018-02-12T10:45:36.984Z,987.35
2018-02-12T10:46:43.725Z,987.39
2018-02-12T10:47:50.556Z,987.29
2018-02-12T10:48:57.299Z,987.31
2018-02-12T10:50:04.031Z,987.33
2018-02-12T10:51:10.805Z,987.41
2018-02-12T10:52:17.748Z,987.40
2018-02-12T10:53:24.445Z,987.39
2018-02-12T10:54:31.173Z,987.38
2018-02-12T10:55:37.907Z,987.43
2018-02-12T10:56:44.692Z,987.38
2018-02-12T10:57:51.404Z,987.40
2018-02-12T10:58:58.176Z,987.41
2018-02-12T11:00:04.935Z,987.49
2018-02-12T11:01:11.808Z,987.50
2018-02-12T11:02:18.555Z,987.53
2018-02-12T11:03:25.267Z,987.48
2018-02-12T11:04:32.103Z,987.42
2018-02-12T11:05:38.908Z,987.52
2018-02-12T11:06:45.659Z,987.47
2018-02-12T11:07:53.625Z,987.50
2018-02-12T11:08:59.363Z,987.50
2018-02-12T11:10:06.088Z,987.49
2018-02-12T11:11:13.312Z,987.43
2018-02-12T11:12:19.679Z,987.49
2018-02-12T11:13:26.438Z,987.48
2018-02-12T11:14:33.169Z,987.45
2018-02-12T11:15:39.949Z,987.52
2018-02-12T11:16:46.676Z,987.43
2018-02-12T11:17:53.409Z,987.40
2018-02-12T11:19:00.259Z,987.48
2018-02-12T11:20:07.011Z,987.49
2018-02-12T11:21:13.716Z,987.49
2018-02-12T11:22:20.481Z,987.53
2018-02-12T11:23:27.193Z,987.52
2018-02-12T11:24:34.024Z,987.60
2018-02-12T11:25:40.932Z,987.55
2018-02-12T11:26:47.652Z,987.60
2018-02-12T11:27:54.553Z,987.50
2018-02-12T11:29:01.388Z,987.60
2018-02-12T11:30:08.215Z,987.63
2018-02-12T11:31:14.927Z,987.54
2018-02-12T11:32:21.671Z,987.64
2018-02-12T11:33:28.473Z,987.53
2018-02-12T11:34:35.273Z,987.44
2018-02-12T11:35:41.991Z,987.48
2018-02-12T11:36:48.720Z,987.47
2018-02-12T11:37:55.483Z,987.53
2018-02-12T11:39:02.311Z,987.50
2018-02-12T11:40:09.152Z,987.53
2018-02-12T11:41:15.881Z,987.58
2018-02-12T11:42:22.592Z,987.55
2018-02-12T11:43:29.398Z,987.47
2018-02-12T11:44:36.138Z,987.51
2018-02-12T11:45:42.874Z,987.54
2018-02-12T11:46:49.647Z,987.50
2018-02-12T11:47:56.736Z,987.55
2018-02-12T11:49:03.636Z,987.46
2018-02-12T11:50:10.452Z,987.52
2018-02-12T11:51:17.391Z,987.46
2018-02-12T11:52:24.177Z,987.53
2018-02-12T11:53:31.048Z,987.52
2018-02-12T11:54:37.795Z,987.53
2018-02-12T11:55:44.553Z,987.49
2018-02-12T11:56:51.428Z,987.54
2018-02-12T11:57:58.297Z,987.49
2018-02-12T11:59:04.995Z,987.42
2018-02-12T12:00:11.722Z,987.46
2018-02-12T12:01:18.454Z,987.51
2018-02-12T12:02:25.224Z,987.53
2018-02-12T12:03:31.944Z,987.45
2018-02-12T12:04:38.713Z,987.40
2018-02-12T12:05:45.447Z,987.47
2018-02-12T12:06:52.292Z,987.45
2018-02-12T12:07:59.039Z,987.42
2018-02-12T12:09:05.790Z,987.52
2018-02-12T12:10:12.518Z,987.49
2018-02-12T12:11:19.263Z,987.45
2018-02-12T12:12:25.980Z,987.51
2018-02-12T12:13:32.721Z,987.52
2018-02-12T12:14:39.464Z,987.45
2018-02-12T12:15:46.280Z,987.48
2018-02-12T12:16:53.047Z,987.45
2018-02-12T12:17:59.761Z,987.58
2018-02-12T12:19:06.536Z,987.53
2018-02-12T12:20:13.250Z,987.49
2018-02-12T12:21:19.960Z,987.43
2018-02-12T12:22:26.765Z,987.42
2018-02-12T12:23:33.529Z,987.55
2018-02-12T12:24:40.524Z,987.55
2018-02-12T12:25:47.315Z,987.49
2018-02-12T12:26:54.032Z,987.52
2018-02-12T12:28:01.007Z,987.54
2018-02-12T12:29:07.761Z,987.53
2018-02-12T12:30:14.518Z,987.50
2018-02-12T12:31:21.426Z,987.47
2018-02-12T12:32:28.156Z,987.47
2018-02-12T12:33:34.887Z,987.51
2018-02-12T12:34:41.623Z,987.48
2018-02-12T12:35:48.385Z,987.54
2018-02-12T12:36:55.092Z,987.55
2018-02-12T12:38:01.825Z,987.45
2018-02-12T12:39:08.559Z,987.55
2018-02-12T12:40:15.295Z,987.55
2018-02-12T12:41:22.076Z,987.50
2018-02-12T12:42:28.875Z,987.54
2018-02-12T12:43:35.616Z,987.56
2018-02-12T12:44:42.492Z,987.48
2018-02-12T12:45:49.295Z,987.42
2018-02-12T12:46:56.133Z,987.42
2018-02-12T12:48:03.152Z,987.50
2018-02-12T12:49:09.884Z,987.37
2018-02-12T12:50:16.960Z,987.47
2018-02-12T12:51:23.843Z,987.43
2018-02-12T12:52:31.064Z,987.43
2018-02-12T12:53:37.419Z,987.49
2018-02-12T12:54:44.167Z,987.45
2018-02-12T12:55:51.005Z,987.41
2018-02-12T12:56:57.774Z,987.41
2018-02-12T12:58:04.576Z,987.35
2018-02-12T12:59:11.392Z,987.37
2018-02-12T13:00:18.188Z,987.40
2018-02-12T13:01:25.004Z,987.34
2018-02-12T13:02:31.876Z,987.49
2018-02-12T13:03:38.778Z,987.32
2018-02-12T13:04:45.528Z,987.37
2018-02-12T13:05:52.345Z,987.34
2018-02-12T13:06:59.156Z,987.39
2018-02-12T13:08:05.978Z,987.39
2018-02-12T13:09:12.823Z,987.37
2018-02-12T13:10:19.569Z,987.37
2018-02-12T13:11:26.306Z,987.38
2018-02-12T13:12:33.071Z,987.37
2018-02-12T13:13:39.851Z,987.36
2018-02-12T13:14:46.673Z,987.45
2018-02-12T13:15:53.540Z,987.41
2018-02-12T13:17:00.288Z,987.42
2018-02-12T13:18:07.088Z,987.42
2018-02-12T13:19:13.881Z,987.48
2018-02-12T13:20:20.667Z,987.43
2018-02-12T13:21:27.533Z,987.37
2018-02-12T13:22:34.424Z,987.41
2018-02-12T13:23:41.288Z,987.40
2018-02-12T13:24:48.061Z,987.51
2018-02-12T13:25:54.819Z,987.48
2018-02-12T13:27:02.058Z,987.56
2018-02-12T13:28:08.996Z,987.59
2018-02-12T13:29:15.765Z,987.44
2018-02-12T13:30:22.600Z,987.54
2018-02-12T13:31:29.467Z,987.44
2018-02-12T13:32:36.347Z,987.50
2018-02-12T13:33:43.153Z,987.60
2018-02-12T13:34:49.893Z,987.57
2018-02-12T13:35:56.663Z,987.46
2018-02-12T13:37:03.493Z,987.59
2018-02-12T13:38:10.261Z,987.46
2018-02-12T13:39:16.978Z,987.57
2018-02-12T13:40:23.755Z,987.52
2018-02-12T13:41:30.862Z,987.50
2018-02-12T13:42:37.648Z,987.50
2018-02-12T13:43:44.369Z,987.47
2018-02-12T13:44:51.091Z,987.52
2018-02-12T13:45:57.891Z,987.56
2018-02-12T13:47:04.655Z,987.56
2018-02-12T13:48:11.403Z,987.52
2018-02-12T13:49:18.190Z,987.55
2018-02-12T13:50:25.062Z,987.55
2018-02-12T13:51:31.889Z,987.56
2018-02-12T13:52:38.758Z,987.51